»·PEaware :: NKS518 KDEN-KLAS

NKS518 :: KDEN-KLAS

FLIGHT INFORMATION

Flight Status: Arrived
Operator:
Spirit Airlines
More flights by this operator :: More flights under this callsign
Pilot: Mike G. (10864)
Aircraft: AIRBUS A321
(A321)
More flights by this aircraft type
Origin: KDEN Denver Intl
United States
Destination: KLAS McCarran Intl
United States
More flights between these airports :: More routes between these airports
Route: CONNR7 WERNR ZAKRY GGAPP SITEE4
File this flight plan on PilotEdge
Remarks: RMK / SIMBRIEF
Altitude:
(Current/Filed)
36,000ft
Speed:
(Current/Filed)
455kts
Departed: 26-Aug-20 02:09 PM
Arrived: 26-Aug-20 03:39 PM
Distance/Time
Traveled:
545nm/1:30
Distance/Time
To Go:
Arrived

Flight Plot

Page will automatically refresh every two minutes.

Flight plan parsing failed; only flown route is shown


Map Options




Map Legend


Flown Route
Filed Route
Departure Airport
Arrival Airport
Navaid (VOR, NDB)
Fix

Horizontal Profiles

Position Reports

Time Latitude Longitude Heading Altitude Ground
Speed
26-Aug-20 13:41 39.857983 -104.670805 0 5443ft 0kts
26-Aug-20 13:42 39.857983 -104.670805 0 5443ft 0kts
26-Aug-20 13:43 39.857983 -104.670805 0 5443ft 0kts
26-Aug-20 13:44 39.857983 -104.670805 0 5443ft 0kts
26-Aug-20 13:44 39.857983 -104.670805 0 5443ft 0kts
26-Aug-20 13:46 39.857983 -104.670805 0 5443ft 0kts
26-Aug-20 13:47 39.857983 -104.670805 0 5443ft 0kts
26-Aug-20 13:47 39.857983 -104.670805 0 5443ft 0kts
26-Aug-20 13:48 39.857983 -104.670805 0 5443ft 0kts
26-Aug-20 13:49 39.857983 -104.670805 0 5443ft 0kts
26-Aug-20 13:50 39.857983 -104.670805 0 5443ft 0kts
26-Aug-20 13:52 39.857983 -104.670805 0 5443ft 0kts
26-Aug-20 13:52 39.857983 -104.670805 0 5443ft 0kts
26-Aug-20 13:53 39.857983 -104.670805 0 5443ft 0kts
26-Aug-20 13:54 39.857983 -104.670805 0 5443ft 0kts
26-Aug-20 13:55 39.857983 -104.670805 0 5443ft 0kts
26-Aug-20 13:56 39.857783 -104.670808 0 5443ft 2kts
26-Aug-20 13:57 39.857294 -104.671130 77 5443ft 2kts
26-Aug-20 13:58 39.857286 -104.671307 90 5443ft 0kts
26-Aug-20 13:59 39.857286 -104.671307 90 5443ft 0kts
26-Aug-20 14:00 39.857286 -104.671279 90 5443ft 1kts
26-Aug-20 14:01 39.856854 -104.669005 135 5443ft 12kts
26-Aug-20 14:02 39.856691 -104.665612 74 5443ft 0kts
26-Aug-20 14:03 39.857170 -104.662449 19 5443ft 13kts
26-Aug-20 14:04 39.862051 -104.662315 358 5443ft 19kts
26-Aug-20 14:05 39.862469 -104.662244 91 5443ft 2kts
26-Aug-20 14:06 39.861121 -104.661864 117 5443ft 0kts
26-Aug-20 14:07 39.861100 -104.661791 109 5443ft 3kts
26-Aug-20 14:08 39.857645 -104.660134 183 5443ft 69kts
26-Aug-20 14:09 39.811732 -104.661583 179 6289ft 211kts
26-Aug-20 14:10 39.751844 -104.679671 242 7171ft 252kts
26-Aug-20 14:11 39.776832 -104.763076 305 8145ft 289kts
26-Aug-20 14:12 39.819874 -104.855448 302 10132ft 304kts
26-Aug-20 14:13 39.831395 -104.969110 255 11000ft 361kts
26-Aug-20 14:14 39.803172 -105.103039 255 11761ft 410kts
26-Aug-20 14:15 39.773627 -105.249011 255 13392ft 428kts
26-Aug-20 14:16 39.742780 -105.400371 255 15199ft 438kts
26-Aug-20 14:17 39.711115 -105.554599 256 16917ft 447kts
26-Aug-20 14:18 39.681948 -105.712216 260 18600ft 455kts
26-Aug-20 14:19 39.659954 -105.874487 260 20383ft 460kts
26-Aug-20 14:20 39.637438 -106.038265 260 21982ft 467kts
26-Aug-20 14:21 39.614154 -106.205280 260 23390ft 473kts
26-Aug-20 14:22 39.590375 -106.374064 260 24789ft 475kts
26-Aug-20 14:23 39.566819 -106.539655 260 26360ft 467kts
26-Aug-20 14:24 39.537235 -106.703006 251 27633ft 464kts
26-Aug-20 14:25 39.489791 -106.857380 248 28854ft 458kts
26-Aug-20 14:26 39.442512 -107.006974 248 30095ft 447kts
26-Aug-20 14:27 39.395757 -107.154357 248 31023ft 440kts
26-Aug-20 14:28 39.347560 -107.298903 246 31650ft 438kts
26-Aug-20 14:29 39.297755 -107.442047 246 32213ft 436kts
26-Aug-20 14:30 39.248179 -107.584380 246 32672ft 434kts
26-Aug-20 14:31 39.198777 -107.725861 245 33059ft 433kts
26-Aug-20 14:32 39.149358 -107.866754 245 33533ft 428kts
26-Aug-20 14:33 39.101274 -108.002958 245 34519ft 413kts
26-Aug-20 14:34 39.054562 -108.134644 245 35508ft 400kts
26-Aug-20 14:35 39.008479 -108.263975 245 35934ft 400kts
26-Aug-20 14:36 38.961819 -108.394365 245 36001ft 409kts
26-Aug-20 14:37 38.913598 -108.528497 245 36032ft 418kts
26-Aug-20 14:38 38.865086 -108.661865 244 36029ft 425kts
26-Aug-20 14:39 38.815140 -108.799412 245 36032ft 429kts
26-Aug-20 14:40 38.764511 -108.938365 245 36032ft 431kts
26-Aug-20 14:41 38.713977 -109.076426 244 36028ft 431kts
26-Aug-20 14:42 38.663334 -109.214173 244 36009ft 426kts
26-Aug-20 14:43 38.612835 -109.350695 244 35996ft 424kts
26-Aug-20 14:44 38.562398 -109.486522 244 35994ft 423kts
26-Aug-20 14:45 38.511927 -109.621849 244 35994ft 422kts
26-Aug-20 14:46 38.461421 -109.757054 243 35994ft 422kts
26-Aug-20 14:47 38.410695 -109.892031 243 35995ft 422kts
26-Aug-20 14:48 38.360184 -110.025694 243 35994ft 422kts
26-Aug-20 14:49 38.309342 -110.159618 243 35992ft 422kts
26-Aug-20 14:50 38.258155 -110.293858 243 35988ft 422kts
26-Aug-20 14:51 38.206831 -110.427882 243 35986ft 422kts
26-Aug-20 14:52 38.155571 -110.561129 243 35986ft 421kts
26-Aug-20 14:53 38.103740 -110.695425 243 35983ft 422kts
26-Aug-20 14:54 38.052195 -110.828616 242 35986ft 422kts
26-Aug-20 14:55 38.000230 -110.962008 242 35987ft 422kts
26-Aug-20 14:56 37.948873 -111.093235 243 35987ft 419kts
26-Aug-20 14:57 37.897305 -111.224440 243 36020ft 415kts
26-Aug-20 14:58 37.845373 -111.354910 243 36146ft 412kts
26-Aug-20 14:59 37.794161 -111.483912 243 36238ft 411kts
26-Aug-20 15:00 37.742854 -111.612825 243 36257ft 411kts
26-Aug-20 15:01 37.691204 -111.742430 242 36259ft 412kts
26-Aug-20 15:02 37.639449 -111.871584 242 36260ft 413kts
26-Aug-20 15:03 37.587862 -111.999656 242 36260ft 413kts
26-Aug-20 15:04 37.535558 -112.128389 241 36259ft 413kts
26-Aug-20 15:05 37.476891 -112.252671 238 36260ft 413kts
26-Aug-20 15:06 37.417616 -112.376244 238 36247ft 413kts
26-Aug-20 15:07 37.358032 -112.500019 238 36131ft 415kts
26-Aug-20 15:08 37.298417 -112.623439 238 35117ft 410kts
26-Aug-20 15:09 37.239342 -112.745647 238 34112ft 410kts
26-Aug-20 15:10 37.179913 -112.867963 237 33116ft 412kts
26-Aug-20 15:11 37.120195 -112.990292 237 32116ft 411kts
26-Aug-20 15:12 37.060661 -113.111696 237 31122ft 416kts
26-Aug-20 15:13 36.999398 -113.236142 237 30119ft 424kts
26-Aug-20 15:14 36.937135 -113.362189 237 29118ft 431kts
26-Aug-20 15:15 36.873323 -113.490502 237 27854ft 437kts
26-Aug-20 15:16 36.808676 -113.619741 237 24426ft 445kts
26-Aug-20 15:17 36.743784 -113.749965 237 21542ft 435kts
26-Aug-20 15:18 36.680633 -113.876065 237 18946ft 423kts
26-Aug-20 15:19 36.619284 -113.998028 237 16613ft 408kts
26-Aug-20 15:20 36.562878 -114.109641 237 15785ft 352kts
26-Aug-20 15:21 36.515662 -114.202095 236 14744ft 299kts
26-Aug-20 15:22 36.472112 -114.287162 237 13785ft 286kts
26-Aug-20 15:24 36.429522 -114.370066 236 12920ft 299kts
26-Aug-20 15:25 36.384436 -114.457772 237 11959ft 297kts
26-Aug-20 15:26 36.340959 -114.542258 237 11099ft 275kts
26-Aug-20 15:27 36.300768 -114.618673 228 9968ft 258kts
26-Aug-20 15:28 36.239654 -114.656005 200 9040ft 242kts
26-Aug-20 15:29 36.192937 -114.706169 246 8007ft 237kts
26-Aug-20 15:30 36.165441 -114.769626 249 8047ft 177kts
26-Aug-20 15:31 36.147190 -114.823857 244 6974ft 171kts
26-Aug-20 15:32 36.124905 -114.875323 242 6548ft 169kts
26-Aug-20 15:33 36.101933 -114.924355 243 5194ft 157kts
26-Aug-20 15:34 36.083320 -114.973262 254 4561ft 157kts
26-Aug-20 15:35 36.074038 -115.025244 262 3519ft 154kts
26-Aug-20 15:36 36.073841 -115.078331 266 2860ft 154kts
26-Aug-20 15:37 36.073631 -115.130781 266 2072ft 147kts
26-Aug-20 15:37 36.074014 -115.148898 297 2116ft 45kts
26-Aug-20 15:39 36.074888 -115.150931 298 2122ft 23kts
26-Aug-20 15:40 36.080467 -115.154332 336 2124ft 15kts
26-Aug-20 15:40 36.083545 -115.155044 63 2118ft 15kts
26-Aug-20 15:42 36.084738 -115.152400 44 2106ft 0kts

Navigation Log

Ident Type
Flight plan parsing failed, navigation log unavailable